sensor_id;sensor_type;location;lat;lon;timestamp;temperature;humidity
28837;DHT22;50669;50.982;11.022;2023-04-03T00:01:28;16.50;72.80
28837;DHT22;50669;50.982;11.022;2023-04-03T00:03:54;16.50;73.50
28837;DHT22;50669;50.982;11.022;2023-04-03T00:06:24;16.50;72.90
28837;DHT22;50669;50.982;11.022;2023-04-03T00:08:50;16.40;72.80
28837;DHT22;50669;50.982;11.022;2023-04-03T00:11:17;16.50;72.90
28837;DHT22;50669;50.982;11.022;2023-04-03T00:13:44;16.40;72.80
28837;DHT22;50669;50.982;11.022;2023-04-03T00:16:12;16.40;72.80
28837;DHT22;50669;50.982;11.022;2023-04-03T00:18:39;16.40;72.80
28837;DHT22;50669;50.982;11.022;2023-04-03T00:21:05;16.40;72.80
28837;DHT22;50669;50.982;11.022;2023-04-03T00:23:32;16.40;72.80
28837;DHT22;50669;50.982;11.022;2023-04-03T00:25:57;16.40;72.80
28837;DHT22;50669;50.982;11.022;2023-04-03T00:28:25;16.40;72.70
28837;DHT22;50669;50.982;11.022;2023-04-03T00:30:54;16.40;72.80
28837;DHT22;50669;50.982;11.022;2023-04-03T00:33:20;16.40;72.80
28837;DHT22;50669;50.982;11.022;2023-04-03T00:35:49;16.40;72.80
28837;DHT22;50669;50.982;11.022;2023-04-03T00:38:15;16.40;72.80
28837;DHT22;50669;50.982;11.022;2023-04-03T00:40:44;16.40;72.80
28837;DHT22;50669;50.982;11.022;2023-04-03T00:43:17;16.40;72.80
28837;DHT22;50669;50.982;11.022;2023-04-03T00:45:45;16.40;72.70
28837;DHT22;50669;50.982;11.022;2023-04-03T00:48:18;16.40;72.80
28837;DHT22;50669;50.982;11.022;2023-04-03T00:50:45;16.40;72.80
28837;DHT22;50669;50.982;11.022;2023-04-03T00:53:18;16.40;72.80
28837;DHT22;50669;50.982;11.022;2023-04-03T00:55:47;16.40;72.80
28837;DHT22;50669;50.982;11.022;2023-04-03T00:58:15;16.40;72.70
28837;DHT22;50669;50.982;11.022;2023-04-03T01:00:46;16.40;72.80
28837;DHT22;50669;50.982;11.022;2023-04-03T01:03:13;16.40;72.80
28837;DHT22;50669;50.982;11.022;2023-04-03T01:05:40;16.40;72.80
28837;DHT22;50669;50.982;11.022;2023-04-03T01:08:06;16.40;72.70
28837;DHT22;50669;50.982;11.022;2023-04-03T01:10:34;16.40;72.80
28837;DHT22;50669;50.982;11.022;2023-04-03T01:13:00;16.40;72.80
28837;DHT22;50669;50.982;11.022;2023-04-03T01:15:28;16.40;72.80
28837;DHT22;50669;50.982;11.022;2023-04-03T01:18:00;16.40;72.80
28837;DHT22;50669;50.982;11.022;2023-04-03T01:25:44;16.40;72.80
28837;DHT22;50669;50.982;11.022;2023-04-03T01:28:20;16.30;72.80
28837;DHT22;50669;50.982;11.022;2023-04-03T01:33:20;16.30;72.80
28837;DHT22;50669;50.982;11.022;2023-04-03T01:35:45;16.30;72.70
28837;DHT22;50669;50.982;11.022;2023-04-03T01:38:11;16.30;72.80
28837;DHT22;50669;50.982;11.022;2023-04-03T01:40:39;16.30;72.80
28837;DHT22;50669;50.982;11.022;2023-04-03T01:43:04;16.30;72.80
28837;DHT22;50669;50.982;11.022;2023-04-03T01:45:30;16.30;72.70
28837;DHT22;50669;50.982;11.022;2023-04-03T01:47:59;16.30;72.80
28837;DHT22;50669;50.982;11.022;2023-04-03T01:50:24;16.30;72.80
28837;DHT22;50669;50.982;11.022;2023-04-03T01:52:53;16.30;72.80
28837;DHT22;50669;50.982;11.022;2023-04-03T01:55:18;16.30;72.80
28837;DHT22;50669;50.982;11.022;2023-04-03T01:57:46;16.30;72.70
28837;DHT22;50669;50.982;11.022;2023-04-03T02:00:12;16.30;72.80
28837;DHT22;50669;50.982;11.022;2023-04-03T02:02:38;16.30;72.80
28837;DHT22;50669;50.982;11.022;2023-04-03T02:05:04;16.30;72.80
28837;DHT22;50669;50.982;11.022;2023-04-03T02:07:30;16.30;72.70
28837;DHT22;50669;50.982;11.022;2023-04-03T02:09:57;16.20;72.70
28837;DHT22;50669;50.982;11.022;2023-04-03T02:12:23;16.30;72.80
28837;DHT22;50669;50.982;11.022;2023-04-03T02:14:49;16.30;72.80
28837;DHT22;50669;50.982;11.022;2023-04-03T02:17:15;16.30;72.80
28837;DHT22;50669;50.982;11.022;2023-04-03T02:19:40;16.20;72.70
28837;DHT22;50669;50.982;11.022;2023-04-03T02:22:11;16.20;72.60
28837;DHT22;50669;50.982;11.022;2023-04-03T02:24:36;16.20;72.70
28837;DHT22;50669;50.982;11.022;2023-04-03T02:27:04;16.20;72.70
28837;DHT22;50669;50.982;11.022;2023-04-03T02:29:30;16.20;72.70
28837;DHT22;50669;50.982;11.022;2023-04-03T02:32:00;16.20;72.70
28837;DHT22;50669;50.982;11.022;2023-04-03T02:34:26;16.20;72.60
28837;DHT22;50669;50.982;11.022;2023-04-03T02:36:51;16.20;72.60
28837;DHT22;50669;50.982;11.022;2023-04-03T02:39:19;16.20;72.70
28837;DHT22;50669;50.982;11.022;2023-04-03T02:41:47;16.20;72.70
28837;DHT22;50669;50.982;11.022;2023-04-03T02:44:13;16.20;72.70
28837;DHT22;50669;50.982;11.022;2023-04-03T02:46:41;16.20;72.70
28837;DHT22;50669;50.982;11.022;2023-04-03T02:49:07;16.20;72.60
28837;DHT22;50669;50.982;11.022;2023-04-03T02:51:32;16.20;72.70
28837;DHT22;50669;50.982;11.022;2023-04-03T02:53:58;16.20;72.70
28837;DHT22;50669;50.982;11.022;2023-04-03T02:56:23;16.20;72.70
28837;DHT22;50669;50.982;11.022;2023-04-03T02:58:52;16.20;72.70
28837;DHT22;50669;50.982;11.022;2023-04-03T03:01:20;16.20;72.70
28837;DHT22;50669;50.982;11.022;2023-04-03T03:03:46;16.20;72.70
28837;DHT22;50669;50.982;11.022;2023-04-03T03:06:16;16.20;72.60
28837;DHT22;50669;50.982;11.022;2023-04-03T03:08:42;16.20;72.70
28837;DHT22;50669;50.982;11.022;2023-04-03T03:11:09;16.20;72.70
28837;DHT22;50669;50.982;11.022;2023-04-03T03:13:35;16.20;72.70
28837;DHT22;50669;50.982;11.022;2023-04-03T03:16:01;16.10;72.70
28837;DHT22;50669;50.982;11.022;2023-04-03T03:18:29;16.10;72.60
28837;DHT22;50669;50.982;11.022;2023-04-03T03:20:57;16.20;72.70
28837;DHT22;50669;50.982;11.022;2023-04-03T03:23:27;16.10;72.60
28837;DHT22;50669;50.982;11.022;2023-04-03T03:25:57;16.10;72.70
28837;DHT22;50669;50.982;11.022;2023-04-03T03:28:23;16.10;72.70
28837;DHT22;50669;50.982;11.022;2023-04-03T03:30:51;16.10;72.60
28837;DHT22;50669;50.982;11.022;2023-04-03T03:33:18;16.10;72.60
28837;DHT22;50669;50.982;11.022;2023-04-03T03:35:45;16.10;72.60
28837;DHT22;50669;50.982;11.022;2023-04-03T03:38:11;16.10;72.70
28837;DHT22;50669;50.982;11.022;2023-04-03T03:40:37;16.10;72.60
28837;DHT22;50669;50.982;11.022;2023-04-03T03:43:03;16.10;72.60
28837;DHT22;50669;50.982;11.022;2023-04-03T03:45:28;16.10;72.60
28837;DHT22;50669;50.982;11.022;2023-04-03T03:47:54;16.10;72.60
28837;DHT22;50669;50.982;11.022;2023-04-03T03:50:20;16.10;72.60
28837;DHT22;50669;50.982;11.022;2023-04-03T03:52:46;16.10;72.70
28837;DHT22;50669;50.982;11.022;2023-04-03T03:55:11;16.10;72.60
28837;DHT22;50669;50.982;11.022;2023-04-03T03:57:37;16.10;72.60
28837;DHT22;50669;50.982;11.022;2023-04-03T04:00:03;16.10;72.70
28837;DHT22;50669;50.982;11.022;2023-04-03T04:02:29;16.10;72.60
28837;DHT22;50669;50.982;11.022;2023-04-03T04:04:55;16.10;72.60
28837;DHT22;50669;50.982;11.022;2023-04-03T04:07:21;16.10;72.60
28837;DHT22;50669;50.982;11.022;2023-04-03T04:09:49;16.10;72.60
28837;DHT22;50669;50.982;11.022;2023-04-03T04:12:17;16.10;72.70
28837;DHT22;50669;50.982;11.022;2023-04-03T04:14:48;16.10;72.60
28837;DHT22;50669;50.982;11.022;2023-04-03T04:17:17;16.10;72.60
28837;DHT22;50669;50.982;11.022;2023-04-03T04:19:45;16.10;72.70
28837;DHT22;50669;50.982;11.022;2023-04-03T04:22:11;16.10;72.70
28837;DHT22;50669;50.982;11.022;2023-04-03T04:24:37;16.10;72.60
28837;DHT22;50669;50.982;11.022;2023-04-03T04:27:02;16.00;72.50
28837;DHT22;50669;50.982;11.022;2023-04-03T04:29:30;16.10;72.70
28837;DHT22;50669;50.982;11.022;2023-04-03T04:32:04;16.00;72.60
28837;DHT22;50669;50.982;11.022;2023-04-03T04:34:30;16.00;72.60
28837;DHT22;50669;50.982;11.022;2023-04-03T04:36:58;16.00;72.60
28837;DHT22;50669;50.982;11.022;2023-04-03T04:39:25;16.00;72.60
28837;DHT22;50669;50.982;11.022;2023-04-03T04:41:51;16.00;72.60
28837;DHT22;50669;50.982;11.022;2023-04-03T04:44:20;16.00;72.60
28837;DHT22;50669;50.982;11.022;2023-04-03T04:46:48;16.00;72.60
28837;DHT22;50669;50.982;11.022;2023-04-03T04:49:14;16.00;72.60
28837;DHT22;50669;50.982;11.022;2023-04-03T04:51:41;16.00;72.60
28837;DHT22;50669;50.982;11.022;2023-04-03T04:54:07;16.00;72.60
28837;DHT22;50669;50.982;11.022;2023-04-03T04:56:33;16.00;72.60
28837;DHT22;50669;50.982;11.022;2023-04-03T04:58:58;16.00;73.30
28837;DHT22;50669;50.982;11.022;2023-04-03T05:01:24;16.00;72.60
28837;DHT22;50669;50.982;11.022;2023-04-03T05:03:52;16.00;72.60
28837;DHT22;50669;50.982;11.022;2023-04-03T05:06:20;16.00;72.60
28837;DHT22;50669;50.982;11.022;2023-04-03T05:08:48;16.00;72.60
28837;DHT22;50669;50.982;11.022;2023-04-03T05:11:13;16.00;72.60
28837;DHT22;50669;50.982;11.022;2023-04-03T05:13:39;16.00;72.50
28837;DHT22;50669;50.982;11.022;2023-04-03T05:16:07;16.00;72.60
28837;DHT22;50669;50.982;11.022;2023-04-03T05:18:35;16.00;72.60
28837;DHT22;50669;50.982;11.022;2023-04-03T05:21:03;15.90;72.60
28837;DHT22;50669;50.982;11.022;2023-04-03T05:23:29;15.90;72.50
28837;DHT22;50669;50.982;11.022;2023-04-03T05:25:54;15.90;72.50
28837;DHT22;50669;50.982;11.022;2023-04-03T05:28:23;15.90;72.40
28837;DHT22;50669;50.982;11.022;2023-04-03T05:30:55;15.90;72.50
28837;DHT22;50669;50.982;11.022;2023-04-03T05:33:22;15.90;72.50
28837;DHT22;50669;50.982;11.022;2023-04-03T05:35:47;15.90;72.50
28837;DHT22;50669;50.982;11.022;2023-04-03T05:38:13;15.90;72.50
28837;DHT22;50669;50.982;11.022;2023-04-03T05:40:39;15.90;72.50
28837;DHT22;50669;50.982;11.022;2023-04-03T05:43:04;15.90;72.40
28837;DHT22;50669;50.982;11.022;2023-04-03T05:45:30;15.90;72.50
28837;DHT22;50669;50.982;11.022;2023-04-03T05:47:58;15.90;72.50
28837;DHT22;50669;50.982;11.022;2023-04-03T05:50:26;15.90;72.50
28837;DHT22;50669;50.982;11.022;2023-04-03T05:52:55;15.90;72.50
28837;DHT22;50669;50.982;11.022;2023-04-03T05:55:24;15.90;72.50
28837;DHT22;50669;50.982;11.022;2023-04-03T05:57:50;15.90;72.50
28837;DHT22;50669;50.982;11.022;2023-04-03T06:00:18;15.90;72.50
28837;DHT22;50669;50.982;11.022;2023-04-03T06:02:44;15.90;72.50
28837;DHT22;50669;50.982;11.022;2023-04-03T06:05:10;15.90;72.40
28837;DHT22;50669;50.982;11.022;2023-04-03T06:07:37;15.90;72.50
28837;DHT22;50669;50.982;11.022;2023-04-03T06:10:04;15.90;72.40
28837;DHT22;50669;50.982;11.022;2023-04-03T06:12:30;15.90;72.50
28837;DHT22;50669;50.982;11.022;2023-04-03T06:14:56;15.80;72.40
28837;DHT22;50669;50.982;11.022;2023-04-03T06:17:24;15.90;72.40
28837;DHT22;50669;50.982;11.022;2023-04-03T06:19:50;15.90;72.40
28837;DHT22;50669;50.982;11.022;2023-04-03T06:22:18;15.80;72.40
28837;DHT22;50669;50.982;11.022;2023-04-03T06:24:46;15.90;72.40
28837;DHT22;50669;50.982;11.022;2023-04-03T06:27:12;15.80;72.30
28837;DHT22;50669;50.982;11.022;2023-04-03T06:29:38;15.80;72.40
28837;DHT22;50669;50.982;11.022;2023-04-03T06:32:04;15.90;72.40
28837;DHT22;50669;50.982;11.022;2023-04-03T06:34:29;15.90;72.40
28837;DHT22;50669;50.982;11.022;2023-04-03T06:36:55;15.80;72.30
28837;DHT22;50669;50.982;11.022;2023-04-03T06:39:22;15.80;72.30
28837;DHT22;50669;50.982;11.022;2023-04-03T06:41:52;15.80;72.30
28837;DHT22;50669;50.982;11.022;2023-04-03T06:44:23;15.80;72.30
28837;DHT22;50669;50.982;11.022;2023-04-03T06:46:48;15.80;72.30
28837;DHT22;50669;50.982;11.022;2023-04-03T06:49:16;15.80;72.30
28837;DHT22;50669;50.982;11.022;2023-04-03T06:51:42;15.80;72.30
28837;DHT22;50669;50.982;11.022;2023-04-03T06:54:08;15.80;72.30
28837;DHT22;50669;50.982;11.022;2023-04-03T06:56:33;15.80;72.30
28837;DHT22;50669;50.982;11.022;2023-04-03T06:58:59;15.80;72.20
28837;DHT22;50669;50.982;11.022;2023-04-03T07:01:29;15.90;72.30
28837;DHT22;50669;50.982;11.022;2023-04-03T07:03:55;15.90;72.30
28837;DHT22;50669;50.982;11.022;2023-04-03T07:06:22;15.80;72.20
28837;DHT22;50669;50.982;11.022;2023-04-03T07:08:48;15.90;72.20
28837;DHT22;50669;50.982;11.022;2023-04-03T07:11:16;15.90;72.20
28837;DHT22;50669;50.982;11.022;2023-04-03T07:13:42;15.90;72.20
28837;DHT22;50669;50.982;11.022;2023-04-03T07:16:09;15.90;72.10
28837;DHT22;50669;50.982;11.022;2023-04-03T07:18:35;15.90;72.10
28837;DHT22;50669;50.982;11.022;2023-04-03T07:21:01;15.90;72.10
28837;DHT22;50669;50.982;11.022;2023-04-03T07:23:27;15.90;72.10
28837;DHT22;50669;50.982;11.022;2023-04-03T07:25:55;15.90;72.10
28837;DHT22;50669;50.982;11.022;2023-04-03T07:28:23;15.90;72.10
28837;DHT22;50669;50.982;11.022;2023-04-03T07:30:58;15.90;72.10
28837;DHT22;50669;50.982;11.022;2023-04-03T07:33:24;15.90;72.10
28837;DHT22;50669;50.982;11.022;2023-04-03T07:35:50;15.90;72.10
28837;DHT22;50669;50.982;11.022;2023-04-03T07:38:16;15.90;72.10
28837;DHT22;50669;50.982;11.022;2023-04-03T07:40:51;15.90;72.00
28837;DHT22;50669;50.982;11.022;2023-04-03T07:43:18;15.90;72.10
28837;DHT22;50669;50.982;11.022;2023-04-03T07:45:46;15.90;72.10
28837;DHT22;50669;50.982;11.022;2023-04-03T07:48:16;15.90;72.10
28837;DHT22;50669;50.982;11.022;2023-04-03T07:50:43;15.80;72.00
28837;DHT22;50669;50.982;11.022;2023-04-03T07:53:09;15.80;71.90
28837;DHT22;50669;50.982;11.022;2023-04-03T07:55:35;15.90;72.10
28837;DHT22;50669;50.982;11.022;2023-04-03T07:58:11;15.80;72.00
28837;DHT22;50669;50.982;11.022;2023-04-03T08:00:37;15.80;72.80
28837;DHT22;50669;50.982;11.022;2023-04-03T08:03:06;15.80;72.00
28837;DHT22;50669;50.982;11.022;2023-04-03T08:05:37;15.90;72.00
28837;DHT22;50669;50.982;11.022;2023-04-03T08:08:04;15.90;71.90
28837;DHT22;50669;50.982;11.022;2023-04-03T08:10:30;15.80;72.00
28837;DHT22;50669;50.982;11.022;2023-04-03T08:12:56;15.80;71.90
28837;DHT22;50669;50.982;11.022;2023-04-03T08:15:22;15.90;72.00
28837;DHT22;50669;50.982;11.022;2023-04-03T08:17:50;15.90;71.90
28837;DHT22;50669;50.982;11.022;2023-04-03T08:20:16;15.80;71.90
28837;DHT22;50669;50.982;11.022;2023-04-03T08:22:42;15.80;71.90
28837;DHT22;50669;50.982;11.022;2023-04-03T08:25:10;15.80;72.00
28837;DHT22;50669;50.982;11.022;2023-04-03T08:27:36;15.80;72.00
28837;DHT22;50669;50.982;11.022;2023-04-03T08:30:05;15.80;71.80
28837;DHT22;50669;50.982;11.022;2023-04-03T08:32:33;15.80;71.90
28837;DHT22;50669;50.982;11.022;2023-04-03T08:34:59;15.80;71.90
28837;DHT22;50669;50.982;11.022;2023-04-03T08:37:25;15.80;71.90
28837;DHT22;50669;50.982;11.022;2023-04-03T08:39:51;15.80;71.90
28837;DHT22;50669;50.982;11.022;2023-04-03T08:42:30;15.80;71.90
28837;DHT22;50669;50.982;11.022;2023-04-03T08:50:04;15.80;71.80
28837;DHT22;50669;50.982;11.022;2023-04-03T08:55:03;15.80;71.70
28837;DHT22;50669;50.982;11.022;2023-04-03T08:57:38;15.80;71.80
28837;DHT22;50669;50.982;11.022;2023-04-03T09:00:18;15.90;71.80
28837;DHT22;50669;50.982;11.022;2023-04-03T09:02:49;15.90;71.80
28837;DHT22;50669;50.982;11.022;2023-04-03T09:05:22;15.80;71.70
28837;DHT22;50669;50.982;11.022;2023-04-03T09:08:02;15.80;71.70
28837;DHT22;50669;50.982;11.022;2023-04-03T09:10:34;15.90;71.70
28837;DHT22;50669;50.982;11.022;2023-04-03T09:15:57;15.80;71.70
28837;DHT22;50669;50.982;11.022;2023-04-03T09:18:30;15.80;72.50
28837;DHT22;50669;50.982;11.022;2023-04-03T09:21:26;15.80;71.70
28837;DHT22;50669;50.982;11.022;2023-04-03T09:23:59;15.80;71.70
28837;DHT22;50669;50.982;11.022;2023-04-03T09:26:31;15.80;71.70
28837;DHT22;50669;50.982;11.022;2023-04-03T09:29:05;15.80;71.70
28837;DHT22;50669;50.982;11.022;2023-04-03T09:34:08;15.80;71.70
28837;DHT22;50669;50.982;11.022;2023-04-03T09:36:53;15.80;71.70
28837;DHT22;50669;50.982;11.022;2023-04-03T09:39:21;15.80;71.60
28837;DHT22;50669;50.982;11.022;2023-04-03T09:42:04;15.80;71.70
28837;DHT22;50669;50.982;11.022;2023-04-03T09:44:38;15.80;71.60
28837;DHT22;50669;50.982;11.022;2023-04-03T09:47:23;15.80;71.60
28837;DHT22;50669;50.982;11.022;2023-04-03T09:49:49;15.80;71.60
28837;DHT22;50669;50.982;11.022;2023-04-03T09:52:23;15.80;71.60
28837;DHT22;50669;50.982;11.022;2023-04-03T09:54:49;15.80;71.60
28837;DHT22;50669;50.982;11.022;2023-04-03T09:57:15;15.80;71.50
28837;DHT22;50669;50.982;11.022;2023-04-03T10:02:20;15.80;71.50
28837;DHT22;50669;50.982;11.022;2023-04-03T10:04:46;15.80;71.50
28837;DHT22;50669;50.982;11.022;2023-04-03T10:07:34;15.80;71.50
28837;DHT22;50669;50.982;11.022;2023-04-03T10:12:40;15.90;71.50
28837;DHT22;50669;50.982;11.022;2023-04-03T10:15:13;15.90;71.50
28837;DHT22;50669;50.982;11.022;2023-04-03T10:17:53;15.90;71.40
28837;DHT22;50669;50.982;11.022;2023-04-03T10:34:18;15.90;71.30
28837;DHT22;50669;50.982;11.022;2023-04-03T10:41:55;15.90;71.40
28837;DHT22;50669;50.982;11.022;2023-04-03T10:47:24;15.90;71.30
28837;DHT22;50669;50.982;11.022;2023-04-03T10:50:25;15.90;71.20
28837;DHT22;50669;50.982;11.022;2023-04-03T10:58:50;15.90;71.90
28837;DHT22;50669;50.982;11.022;2023-04-03T11:01:41;15.90;71.20
28837;DHT22;50669;50.982;11.022;2023-04-03T11:04:09;15.90;71.10
28837;DHT22;50669;50.982;11.022;2023-04-03T11:09:30;15.90;71.20
28837;DHT22;50669;50.982;11.022;2023-04-03T11:12:04;15.90;71.10
28837;DHT22;50669;50.982;11.022;2023-04-03T11:14:35;15.90;71.10
28837;DHT22;50669;50.982;11.022;2023-04-03T11:17:27;15.90;71.10
28837;DHT22;50669;50.982;11.022;2023-04-03T11:22:47;15.90;71.10
28837;DHT22;50669;50.982;11.022;2023-04-03T11:25:20;16.00;71.10
28837;DHT22;50669;50.982;11.022;2023-04-03T11:27:55;15.90;71.00
28837;DHT22;50669;50.982;11.022;2023-04-03T11:35:55;16.00;71.00
28837;DHT22;50669;50.982;11.022;2023-04-03T11:38:30;16.00;71.10
28837;DHT22;50669;50.982;11.022;2023-04-03T11:41:00;16.00;71.00
28837;DHT22;50669;50.982;11.022;2023-04-03T11:53:53;15.90;70.90
28837;DHT22;50669;50.982;11.022;2023-04-03T12:01:48;16.10;70.80
28837;DHT22;50669;50.982;11.022;2023-04-03T12:04:15;16.10;70.70
28837;DHT22;50669;50.982;11.022;2023-04-03T12:14:49;16.20;70.40
28837;DHT22;50669;50.982;11.022;2023-04-03T12:17:26;16.20;70.40
28837;DHT22;50669;50.982;11.022;2023-04-03T12:19:52;16.20;70.40
28837;DHT22;50669;50.982;11.022;2023-04-03T12:22:20;16.10;70.40
28837;DHT22;50669;50.982;11.022;2023-04-03T12:24:51;16.20;70.50
28837;DHT22;50669;50.982;11.022;2023-04-03T12:27:24;16.10;70.50
28837;DHT22;50669;50.982;11.022;2023-04-03T12:35:49;16.30;70.50
28837;DHT22;50669;50.982;11.022;2023-04-03T12:41:30;16.50;69.90
28837;DHT22;50669;50.982;11.022;2023-04-03T12:46:47;16.60;69.60
28837;DHT22;50669;50.982;11.022;2023-04-03T12:49:35;16.60;69.60
28837;DHT22;50669;50.982;11.022;2023-04-03T12:52:16;16.60;69.50
28837;DHT22;50669;50.982;11.022;2023-04-03T12:54:46;16.60;69.60
28837;DHT22;50669;50.982;11.022;2023-04-03T12:57:25;16.50;69.60
28837;DHT22;50669;50.982;11.022;2023-04-03T12:59:52;16.50;69.50
28837;DHT22;50669;50.982;11.022;2023-04-03T13:04:49;16.60;69.50
28837;DHT22;50669;50.982;11.022;2023-04-03T13:07:32;16.60;69.60
28837;DHT22;50669;50.982;11.022;2023-04-03T13:10:02;16.50;69.60
28837;DHT22;50669;50.982;11.022;2023-04-03T13:12:28;16.50;69.70
28837;DHT22;50669;50.982;11.022;2023-04-03T13:14:57;16.40;69.70
28837;DHT22;50669;50.982;11.022;2023-04-03T13:17:24;16.40;69.80
28837;DHT22;50669;50.982;11.022;2023-04-03T13:19:51;16.40;69.80
28837;DHT22;50669;50.982;11.022;2023-04-03T13:24:54;16.40;70.00
28837;DHT22;50669;50.982;11.022;2023-04-03T13:27:20;16.40;69.90
28837;DHT22;50669;50.982;11.022;2023-04-03T13:29:54;16.40;69.90
28837;DHT22;50669;50.982;11.022;2023-04-03T13:32:24;16.40;69.80
28837;DHT22;50669;50.982;11.022;2023-04-03T13:34:53;16.40;69.80
28837;DHT22;50669;50.982;11.022;2023-04-03T13:42:29;16.40;70.00
28837;DHT22;50669;50.982;11.022;2023-04-03T13:47:46;16.40;69.80
28837;DHT22;50669;50.982;11.022;2023-04-03T13:50:22;16.40;69.90
28837;DHT22;50669;50.982;11.022;2023-04-03T13:52:59;16.40;69.70
28837;DHT22;50669;50.982;11.022;2023-04-03T13:55:36;16.40;69.90
28837;DHT22;50669;50.982;11.022;2023-04-03T13:58:21;16.40;69.90
28837;DHT22;50669;50.982;11.022;2023-04-03T14:00:55;16.40;69.90
28837;DHT22;50669;50.982;11.022;2023-04-03T14:03:31;16.30;69.90
28837;DHT22;50669;50.982;11.022;2023-04-03T14:06:01;16.30;69.90
28837;DHT22;50669;50.982;11.022;2023-04-03T14:08:27;16.30;69.90
28837;DHT22;50669;50.982;11.022;2023-04-03T14:10:53;16.30;69.90
28837;DHT22;50669;50.982;11.022;2023-04-03T14:13:22;16.30;69.90
28837;DHT22;50669;50.982;11.022;2023-04-03T14:15:49;16.30;69.80
28837;DHT22;50669;50.982;11.022;2023-04-03T14:18:20;16.30;70.00
28837;DHT22;50669;50.982;11.022;2023-04-03T14:20:46;16.30;70.00
28837;DHT22;50669;50.982;11.022;2023-04-03T14:23:17;16.30;70.00
28837;DHT22;50669;50.982;11.022;2023-04-03T14:25:43;16.30;69.90
28837;DHT22;50669;50.982;11.022;2023-04-03T14:28:21;16.30;69.90
28837;DHT22;50669;50.982;11.022;2023-04-03T14:30:48;16.30;69.90
28837;DHT22;50669;50.982;11.022;2023-04-03T14:33:19;16.30;69.90
28837;DHT22;50669;50.982;11.022;2023-04-03T14:35:46;16.30;69.90
28837;DHT22;50669;50.982;11.022;2023-04-03T14:38:22;16.30;69.90
28837;DHT22;50669;50.982;11.022;2023-04-03T14:40:49;16.30;69.90
28837;DHT22;50669;50.982;11.022;2023-04-03T14:43:15;16.30;70.00
28837;DHT22;50669;50.982;11.022;2023-04-03T14:45:41;16.30;70.00
28837;DHT22;50669;50.982;11.022;2023-04-03T14:48:15;16.20;69.90
28837;DHT22;50669;50.982;11.022;2023-04-03T14:50:44;16.20;69.90
28837;DHT22;50669;50.982;11.022;2023-04-03T14:53:12;16.20;70.00
28837;DHT22;50669;50.982;11.022;2023-04-03T14:55:38;16.20;70.00
28837;DHT22;50669;50.982;11.022;2023-04-03T14:58:03;16.20;70.00
28837;DHT22;50669;50.982;11.022;2023-04-03T15:00:29;16.20;70.10
28837;DHT22;50669;50.982;11.022;2023-04-03T15:02:55;16.20;70.10
28837;DHT22;50669;50.982;11.022;2023-04-03T15:05:23;16.20;70.00
28837;DHT22;50669;50.982;11.022;2023-04-03T15:08:00;16.20;70.10
28837;DHT22;50669;50.982;11.022;2023-04-03T15:10:28;16.20;70.10
28837;DHT22;50669;50.982;11.022;2023-04-03T15:12:55;16.20;70.10
28837;DHT22;50669;50.982;11.022;2023-04-03T15:15:24;16.10;70.00
28837;DHT22;50669;50.982;11.022;2023-04-03T15:17:56;16.10;70.00
28837;DHT22;50669;50.982;11.022;2023-04-03T15:20:26;16.10;70.00
28837;DHT22;50669;50.982;11.022;2023-04-03T15:22:53;16.10;70.10
28837;DHT22;50669;50.982;11.022;2023-04-03T15:25:19;16.10;70.00
28837;DHT22;50669;50.982;11.022;2023-04-03T15:27:46;16.10;70.00
28837;DHT22;50669;50.982;11.022;2023-04-03T15:30:19;16.10;70.10
28837;DHT22;50669;50.982;11.022;2023-04-03T15:32:45;16.10;70.00
28837;DHT22;50669;50.982;11.022;2023-04-03T15:35:13;16.10;70.00
28837;DHT22;50669;50.982;11.022;2023-04-03T15:37:39;16.10;70.10
28837;DHT22;50669;50.982;11.022;2023-04-03T15:40:08;16.10;70.10
28837;DHT22;50669;50.982;11.022;2023-04-03T15:42:38;16.10;70.10
28837;DHT22;50669;50.982;11.022;2023-04-03T15:45:05;16.10;70.10
28837;DHT22;50669;50.982;11.022;2023-04-03T15:47:33;16.10;70.10
28837;DHT22;50669;50.982;11.022;2023-04-03T15:49:59;16.00;70.00
28837;DHT22;50669;50.982;11.022;2023-04-03T15:52:25;16.10;70.10
28837;DHT22;50669;50.982;11.022;2023-04-03T15:54:51;16.10;70.10
28837;DHT22;50669;50.982;11.022;2023-04-03T15:57:16;16.10;70.10
28837;DHT22;50669;50.982;11.022;2023-04-03T15:59:42;16.10;70.10
28837;DHT22;50669;50.982;11.022;2023-04-03T16:02:11;16.10;70.10
28837;DHT22;50669;50.982;11.022;2023-04-03T16:04:42;16.00;70.10
28837;DHT22;50669;50.982;11.022;2023-04-03T16:07:10;16.00;70.10
28837;DHT22;50669;50.982;11.022;2023-04-03T16:09:39;16.00;70.10
28837;DHT22;50669;50.982;11.022;2023-04-03T16:12:04;16.00;70.20
28837;DHT22;50669;50.982;11.022;2023-04-03T16:14:30;16.00;70.20
28837;DHT22;50669;50.982;11.022;2023-04-03T16:16:57;16.00;70.20
28837;DHT22;50669;50.982;11.022;2023-04-03T16:19:23;16.00;70.20
28837;DHT22;50669;50.982;11.022;2023-04-03T16:21:51;16.00;70.20
28837;DHT22;50669;50.982;11.022;2023-04-03T16:24:20;16.00;70.20
28837;DHT22;50669;50.982;11.022;2023-04-03T16:26:48;16.00;70.10
28837;DHT22;50669;50.982;11.022;2023-04-03T16:29:16;16.00;71.00
28837;DHT22;50669;50.982;11.022;2023-04-03T16:31:44;16.00;70.20
28837;DHT22;50669;50.982;11.022;2023-04-03T16:34:10;15.90;70.10
28837;DHT22;50669;50.982;11.022;2023-04-03T16:36:38;16.00;70.20
28837;DHT22;50669;50.982;11.022;2023-04-03T16:39:06;16.00;70.20
28837;DHT22;50669;50.982;11.022;2023-04-03T16:41:39;16.00;70.20
28837;DHT22;50669;50.982;11.022;2023-04-03T16:44:05;15.90;70.10
28837;DHT22;50669;50.982;11.022;2023-04-03T16:46:34;15.90;70.20
28837;DHT22;50669;50.982;11.022;2023-04-03T16:49:03;15.90;70.20
28837;DHT22;50669;50.982;11.022;2023-04-03T16:51:29;15.90;70.20
28837;DHT22;50669;50.982;11.022;2023-04-03T16:53:57;15.90;70.00
28837;DHT22;50669;50.982;11.022;2023-04-03T16:56:23;15.90;70.20
28837;DHT22;50669;50.982;11.022;2023-04-03T16:58:54;15.90;70.20
28837;DHT22;50669;50.982;11.022;2023-04-03T17:01:21;15.90;70.20
28837;DHT22;50669;50.982;11.022;2023-04-03T17:03:52;15.90;70.20
28837;DHT22;50669;50.982;11.022;2023-04-03T17:06:24;15.90;70.20
28837;DHT22;50669;50.982;11.022;2023-04-03T17:08:51;15.90;70.20
28837;DHT22;50669;50.982;11.022;2023-04-03T17:11:19;15.90;70.30
28837;DHT22;50669;50.982;11.022;2023-04-03T17:13:45;15.90;70.30
28837;DHT22;50669;50.982;11.022;2023-04-03T17:16:18;15.80;70.20
28837;DHT22;50669;50.982;11.022;2023-04-03T17:18:45;15.80;71.00